Wetterstation Rottenburg Seebronn / 442m msl / http://mut-lambrecht.de
LETZTE AKTUALISIERUNG UM: 05:10 DATUM: Januar 21 2018, time of next update: 05:15
Aktuelles Wettermostly cloudy - light snow, rain/Night Aktuelle Temperatur 0.7°C (33.3°F), Apparent temp -0.9°C
Höchsttemperatur (seit Mitternacht)1.1°C um: 00:13 Tiefsttemperatur (seit Mitternacht)0.7°C um: 03:42
Windgeschwindigkeit (10 Minuten )1.1 kmh (0.6 kts) Windrichtung (Dir) (10 Minuten )WSW (256°)
Windchill Temperatur 0.7°C Windspitzen (letzte Std)5.4 kmh (2.9 kts) um: 04:44
Windspitzen (seit Mitternacht)7.4 kmh (4.0 kts) um: 02:09 Höchstes Windmittel / Minute (seit Mitternacht)3.8 kmh (2.0 kts) um: 02:13
Regenmenge (letzte Std)0.0 mm Regenmenge (seit Mitternacht)0.0 mm (0.00 in.)---
Regenmenge diesen Monat 88.6 mm (3.49 in.) Regenmenge seit Jahresbeginn 88.6 mm (3.49 in.)
Höchste Regenmenge pro Minute (letzte Std)0.0 mm/min Höchste Regenmenge pro Stunde (letzte 6 Std)0.0 mm/stunde
Regenmenge Gestern 6.3 mm Taupunkt -1.2°C (Wet Bulb :-0.0°C )
Luftfeuchtigkeit 87 %, Humidex -1.7°C Aktueller Luftdruck (auf Meereshöhe bezogen)1004.2 hPa
Luftdrucktendenz +1.2 hPa (letzte Std) Trend (letzte 1 Std)leicht steigend
Luftdrucktendenz (letzte 12 Std)+7.4 hPa Luftdrucktendenz (letzte 6 Std)+7.9 hPa



Weather report/warning/Metars

Stuttgart-Echterdingen, Germany (EDDS) 48-41N 009-13E 391M
Jan 20, 2018 - 10:50 PM EST / 2018.01.21 0350 UTC
Wind: from the WNW (300 degrees) at 17 MPH (15 KT):0
Visibility: greater than 7 mile(s):0
Sky conditions: mostly cloudy
Weather: light snow, rain
Temperature: 35 F (2 C)
Windchill: 24 F (-4 C):1
Dew Point: 33 F (1 C)
Relative Humidity: 93%
Pressure (altimeter): 29.71 in. Hg (1006 hPa)
ob: EDDS 210350Z 30015KT 9999 -SNRA FEW007 SCT011 BKN035 02/01 Q1006
cycle: 4
Karlsruhe, Baden Wurttemberg, Germany (EDSB) 48-46-43N 008-04-47E
Jan 20, 2018 - 10:50 PM EST / 2018.01.21 0350 UTC
Wind: from the WNW (290 degrees) at 8 MPH (7 KT) (direction variable):0
Visibility: greater than 7 mile(s):0
Sky conditions: overcast
Temperature: 39 F (4 C)
Dew Point: 35 F (2 C)
Relative Humidity: 86%
Pressure (altimeter): 29.80 in. Hg (1009 hPa)
ob: EDSB 210350Z 29007KT 260V350 9999 BKN012 OVC016 04/02 Q1009
cycle: 4
Lahr, CAN-AFB, Germany (EDTL) 48-22-09N 007-49-40E
Jan 20, 2018 - 02:20 PM EST / 2018.01.20 1920 UTC
Wind: from the S (170 degrees) at 8 MPH (7 KT):0
Visibility: greater than 7 mile(s):0
Sky conditions: overcast
Weather: light rain
Temperature: 44 F (7 C)
Dew Point: 42 F (6 C)
Relative Humidity: 93%
Pressure (altimeter): 29.50 in. Hg (0999 hPa)
ob: EDTL 201920Z 17007KT 9999 -RA OVC022 07/06 Q0999
cycle: 19
Laupheim, Germany (ETHL) 48-13N 009-55E 550M
Jan 20, 2018 - 10:20 PM EST / 2018.01.21 0320 UTC
Wind: from the W (270 degrees) at 7 MPH (6 KT):0
Visibility: greater than 7 mile(s):0
Sky conditions: partly cloudy
Temperature: 33 F (1 C)
Windchill: 26 F (-3 C):1
Dew Point: 30 F (-1 C)
Relative Humidity: 86%
Pressure (altimeter): 29.65 in. Hg (1004 hPa)
ob: ETHL 210320Z 27006KT 9999 SCT014 SCT035 01/M01 Q1004 BLU+
cycle: 3


Klicken Sie hier, um zu den Durchschnitts-, Extrem-, Monats- oder Tageswerten zu gelangen


Die Wetterdaten werden alle 5 Minuten aktualisiert.
Die untere höherauflösende Windgrafik wird jede Minute aktualisiert.
Bei der Windgrafik sind derzeit die Skalenfarben von Durchschnitt/Böe vertauscht

Drücken Sie gegebenenfalls auf "Aktualisieren" in Ihrem Browser, um die aktuellsten Daten zu erhalten.